• Join FlightAware (Why Join?)
  • Login
  • US Flag 
04:02PM EDT


 

Airport Tracker/Info


-or-


 

Live Flight TrackerFlight Track Log ✈ SKW4730 ✈ 23-Jul-2013 ✈ KLGB - KSLC

Flight Track Log - Related Links

Times and Time Zones

All times are in EDT time to prevent confusion due to time zone crossing. See the SKW4730 flight status page for this flight to view local times or setup timezone preferences in your user account.

Time Position Orientation Groundspeed Altitude Reporting Facility
EDT Latitude Longitude Course Direction KTS MPH feet Rate Location/Type
04:11PM 33.7800 -118.2314 49° Northeast 220 253 4,000  Level Los Angeles Center
04:12PM 33.6730 -118.0208 18° North  Level FlightAware Approximate
04:12PM 33.7203 -118.2533 197° South 218 251 5,800  Level Los Angeles Center
04:13PM 33.7891 -117.9721 23° Northeast  Level FlightAware Approximate
04:13PM 33.6578 -118.2683 191° South 235 270 8,200  Level Los Angeles Center
04:14PM 33.9043 -117.9208 15° North  Level FlightAware Approximate
04:14PM 33.6406 -118.1906 105° East 271 312 10,000  Level Los Angeles Center
04:15PM 34.0039 -117.8363 29° Northeast  Level FlightAware Approximate
04:15PM 33.6872 -118.1131 54° Northeast 314 361 11,500  Level Los Angeles Center
04:16PM 34.0993 -117.7444 49° Northeast  Level FlightAware Approximate
04:16PM 33.7642 -118.0533 33° Northeast 332 382 13,600  Level Los Angeles Center
04:17PM 33.8467 -117.9886 33° Northeast 349 402 15,200 1,980 Climbing Los Angeles Center
04:18PM 33.9500 -117.9042 34° Northeast 370 426 17,700 1,860 Climbing Los Angeles Center
04:19PM 34.0353 -117.8267 37° Northeast 380 437 19,100 1,380 Climbing Los Angeles Center
04:20PM 34.1206 -117.7356 41° Northeast 408 470 20,600 1,440 Climbing Los Angeles Center
04:21PM 34.1967 -117.6325 48° Northeast 414 476 22,100 1,440 Climbing Los Angeles Center
04:22PM 34.2753 -117.5269 48° Northeast 423 487 23,600 1,500 Climbing Los Angeles Center
04:23PM 34.3703 -117.3972 48° Northeast 429 494 25,300 1,140 Climbing Los Angeles Center
04:24PM 34.4381 -117.3033 49° Northeast 439 505 26,300 1,080 Climbing Los Angeles Center
04:25PM 34.5539 -117.1444 48° Northeast 456 525 27,800 1,200 Climbing Los Angeles Center
04:26PM 34.6367 -117.0283 49° Northeast 458 527 28,900 1,020 Climbing Los Angeles Center
04:27PM 34.7222 -116.9097 49° Northeast 465 535 30,000 1,140 Climbing Los Angeles Center
04:28PM 34.8081 -116.7897 49° Northeast 471 542 31,300 1,080 Climbing Los Angeles Center
04:29PM 34.8764 -116.6947 49° Northeast 471 542 32,300 1,200 Climbing Los Angeles Center
04:30PM 34.9969 -116.5294 48° Northeast 469 540 33,900 1,080 Climbing Los Angeles Center
04:31PM 35.0889 -116.4158 45° Northeast 469 540 34,600 480 Climbing Los Angeles Center
04:32PM 35.1819 -116.3014 45° Northeast 474 545 35,000 180 Climbing Los Angeles Center
04:34PM 35.2772 -116.1800 46° Northeast 489 563 35,000  Level Los Angeles Center
04:35PM 35.3742 -116.0575 46° Northeast 499 574 35,000  Level Los Angeles Center
04:36PM 35.4514 -115.9600 46° Northeast 500 575 35,000  Level Los Angeles Center
04:37PM 35.5856 -115.7947 45° Northeast 490 564 35,000  Level Los Angeles Center
04:38PM 35.6806 -115.6747 46° Northeast 489 563 35,000  Level Los Angeles Center
04:39PM 35.7736 -115.5547 46° Northeast 489 563 35,000  Level Los Angeles Center
04:40PM 35.8658 -115.4356 46° Northeast 485 558 35,000  Level Los Angeles Center
04:41PM 35.9586 -115.3161 46° Northeast 485 558 35,000  Level Los Angeles Center
04:42PM 36.0858 -115.1511 46° Northeast 478 550 35,000  Level Los Angeles Center
04:43PM 36.1781 -115.0331 46° Northeast 479 551 35,000  Level Los Angeles Center
04:44PM 36.2711 -114.9164 45° Northeast 480 552 35,000  Level Los Angeles Center
04:45PM 36.3639 -114.7972 46° Northeast 481 554 35,000  Level Los Angeles Center
04:46PM 36.4931 -114.6297 46° Northeast 481 554 35,000  Level Los Angeles Center
04:48PM 36.6417 -114.4381 46° Northeast 484 557 35,000  Level Salt Lake Center
04:49PM 36.7350 -114.3161 46° Northeast 486 559 35,000  Level Salt Lake Center
04:49PM 36.7742 -114.2703 43° Northeast 484 557 35,000 -180 Level Los Angeles Center
04:50PM 36.8897 -114.1825 31° Northeast 485 558 34,800 -360 Descending Los Angeles Center
04:51PM 37.0019 -114.0947 32° Northeast 477 549 34,300 -600 Descending Los Angeles Center
04:53PM 37.1367 -113.9894 32° Northeast 475 547 33,600 -660 Descending Los Angeles Center
04:54PM 37.2539 -113.8994 31° Northeast 490 564 33,000 -300 Descending Los Angeles Center
04:55PM 37.3697 -113.8078 32° Northeast 498 573 33,000  Level Los Angeles Center
04:56PM 37.4867 -113.7169 32° Northeast 494 568 33,000  Level Los Angeles Center
04:57PM 37.6011 -113.6261 32° Northeast 486 559 33,000  Level Los Angeles Center
04:57PM 37.6689 -113.5711 33° Northeast 485 558 33,000  Level Salt Lake Center
04:58PM 37.7839 -113.4797 32° Northeast 485 558 33,000  Level Salt Lake Center
04:59PM 37.8997 -113.3886 32° Northeast 486 559 33,000  Level Salt Lake Center
05:00PM 38.0147 -113.2964 32° Northeast 486 559 33,000  Level Salt Lake Center
05:01PM 38.1508 -113.1864 32° Northeast 481 554 33,000 -360 Level Salt Lake Center
05:02PM 38.2642 -113.0936 33° Northeast 481 554 32,300 -840 Descending Salt Lake Center
05:03PM 38.3750 -113.0061 32° Northeast 470 541 31,300 -660 Descending Salt Lake Center
05:04PM 38.4936 -112.9428 23° Northeast 463 533 31,000 -180 Descending Salt Lake Center
05:05PM 38.6125 -112.8803 22° Northeast 462 532 31,000 -300 Level Salt Lake Center
05:07PM 38.7358 -112.8136 23° Northeast 477 549 30,400 -1,020 Descending Salt Lake Center
05:08PM 38.8569 -112.7478 23° Northeast 474 545 28,900 -1,800 Descending Salt Lake Center
05:09PM 39.0000 -112.6714 23° Northeast 466 536 26,700 -1,980 Descending Salt Lake Center
05:10PM 39.1197 -112.6053 23° Northeast 467 537 24,900 -1,800 Descending Salt Lake Center
05:11PM 39.2389 -112.5417 22° Northeast 465 535 23,100 -1,860 Descending Salt Lake Center
05:12PM 39.3672 -112.4722 23° Northeast 461 531 21,100 -1,860 Descending Salt Lake Center
05:13PM 39.4803 -112.4058 24° Northeast 447 514 19,300 -1,740 Descending Salt Lake Center
05:14PM 39.5892 -112.3428 24° Northeast 430 495 17,600 -1,740 Descending Salt Lake Center
05:15PM 39.6953 -112.2811 24° Northeast 418 481 15,800 -1,260 Descending Salt Lake Center
05:16PM 39.7900 -112.2258 24° Northeast 371 427 15,000 -420 Descending Salt Lake Center
05:17PM 39.8731 -112.1783 24° Northeast 327 376 15,000  Level Salt Lake Center
05:18PM 39.9500 -112.1439 19° North 314 361 15,000 -300 Level Salt Lake Center
05:19PM 40.0436 -112.0847 26° Northeast 318 366 14,500 -900 Descending Salt Lake Center
05:20PM 40.1222 -112.0358 25° Northeast 316 364 13,100 -1,320 Descending Salt Lake Center
05:21PM 40.2125 -111.9803 25° Northeast 312 359 11,700 -1,380 Descending Salt Lake Center
05:22PM 40.2917 -111.9450 19° North 301 346 10,300 -900 Descending Salt Lake Center
05:23PM 40.3739 -111.9369 North 294 338 10,000 -180 Descending Salt Lake Center
05:24PM 40.4636 -111.9458 356° North 288 331 10,000 -420 Level Salt Lake Center
05:25PM 40.5314 -111.9708 344° North 287 330 9,200 -1,380 Descending Salt Lake Center
05:26PM 40.6022 -111.9808 354° North 279 321 7,500 -1,920 Descending Salt Lake Center